createdAt,value
2018-09-13T00:00:10.649Z,17.93
2018-09-13T00:02:39.300Z,23.10
2018-09-13T00:05:07.555Z,21.73
2018-09-13T00:07:35.802Z,24.17
2018-09-13T00:10:04.059Z,25.77
2018-09-13T00:12:32.308Z,22.80
2018-09-13T00:15:00.557Z,24.07
2018-09-13T00:17:28.782Z,23.60
2018-09-13T00:19:57.014Z,23.07
2018-09-13T00:22:25.250Z,24.27
2018-09-13T00:24:53.491Z,23.53
2018-09-13T00:27:21.726Z,24.57
2018-09-13T00:29:49.965Z,23.83
2018-09-13T00:32:18.203Z,22.90
2018-09-13T00:34:46.427Z,20.27
2018-09-13T00:37:14.661Z,20.47
2018-09-13T00:39:42.972Z,24.60
2018-09-13T00:42:11.205Z,23.07
2018-09-13T00:44:39.442Z,22.27
2018-09-13T00:47:13.683Z,23.03
2018-09-13T00:49:42.890Z,22.67
2018-09-13T00:52:11.132Z,20.37
2018-09-13T00:54:39.368Z,23.40
2018-09-13T00:57:07.952Z,23.00
2018-09-13T00:59:36.190Z,21.27
2018-09-13T01:02:04.443Z,20.43
2018-09-13T01:04:32.666Z,20.17
2018-09-13T01:07:00.898Z,20.33
2018-09-13T01:09:29.114Z,20.77
2018-09-13T01:11:57.382Z,21.37
2018-09-13T01:14:25.654Z,19.07
2018-09-13T01:16:53.894Z,22.43
2018-09-13T01:19:22.147Z,22.30
2018-09-13T01:21:50.422Z,23.07
2018-09-13T01:24:18.642Z,22.77
2018-09-13T01:26:46.973Z,19.30
2018-09-13T01:29:15.198Z,21.97
2018-09-13T01:31:43.478Z,19.73
2018-09-13T01:34:11.706Z,18.43
2018-09-13T01:36:39.922Z,17.40
2018-09-13T01:39:09.233Z,17.70
2018-09-13T01:41:37.661Z,19.10
2018-09-13T01:44:06.253Z,21.43
2018-09-13T01:46:34.481Z,19.00
2018-09-13T01:49:02.723Z,19.53
2018-09-13T01:51:30.921Z,18.70
2018-09-13T01:53:59.172Z,20.53
2018-09-13T01:56:27.395Z,17.40
2018-09-13T01:58:55.621Z,19.53
2018-09-13T02:01:23.846Z,18.10
2018-09-13T02:03:52.099Z,17.80
2018-09-13T02:06:20.330Z,15.47
2018-09-13T02:08:48.615Z,16.47
2018-09-13T02:11:16.882Z,17.57
2018-09-13T02:13:45.119Z,16.97
2018-09-13T02:16:13.341Z,17.03
2018-09-13T02:18:41.594Z,16.73
2018-09-13T02:21:09.834Z,14.10
2018-09-13T02:23:38.084Z,18.93
2018-09-13T02:26:06.525Z,16.23
2018-09-13T02:28:34.757Z,16.33
2018-09-13T02:31:02.996Z,16.10
2018-09-13T02:33:31.229Z,14.90
2018-09-13T02:35:59.454Z,16.10
2018-09-13T02:38:27.670Z,17.53
2018-09-13T02:40:55.955Z,18.03
2018-09-13T02:43:24.184Z,15.93
2018-09-13T02:45:52.505Z,13.80
2018-09-13T02:48:20.742Z,16.63
2018-09-13T02:50:48.997Z,16.10
2018-09-13T02:53:17.228Z,16.83
2018-09-13T02:55:45.461Z,14.87
2018-09-13T02:58:13.702Z,16.53
2018-09-13T03:00:41.931Z,17.23
2018-09-13T03:03:10.169Z,16.97
2018-09-13T03:05:38.406Z,15.60
2018-09-13T03:08:06.668Z,17.27
2018-09-13T03:10:34.901Z,17.50
2018-09-13T03:13:03.165Z,15.80
2018-09-13T03:15:31.403Z,14.53
2018-09-13T03:17:59.650Z,14.97
2018-09-13T03:20:27.915Z,16.20
2018-09-13T03:22:56.127Z,15.47
2018-09-13T03:25:24.353Z,18.33
2018-09-13T03:27:52.894Z,16.40
2018-09-13T03:30:21.170Z,14.70
2018-09-13T03:32:49.404Z,14.73
2018-09-13T03:35:17.653Z,16.17
2018-09-13T03:37:45.910Z,17.80
2018-09-13T03:40:14.150Z,17.70
2018-09-13T03:42:42.461Z,15.97
2018-09-13T03:45:10.763Z,17.97
2018-09-13T03:47:39.019Z,15.37
2018-09-13T03:50:07.251Z,15.23
2018-09-13T03:52:35.495Z,18.43
2018-09-13T03:55:04.884Z,16.00
2018-09-13T03:57:33.106Z,14.97
2018-09-13T04:00:01.340Z,15.57
2018-09-13T04:02:29.622Z,16.37
2018-09-13T04:04:57.832Z,17.23
2018-09-13T04:07:26.102Z,16.37
2018-09-13T04:09:54.322Z,17.17
2018-09-13T04:12:22.898Z,16.73
2018-09-13T04:14:51.141Z,16.53
2018-09-13T04:17:19.386Z,18.90
2018-09-13T04:19:47.789Z,19.00
2018-09-13T04:22:16.781Z,19.53
2018-09-13T04:24:45.367Z,16.13
2018-09-13T04:27:13.991Z,16.33
2018-09-13T04:29:42.588Z,17.60
2018-09-13T04:32:10.842Z,18.17
2018-09-13T04:34:39.107Z,18.47
2018-09-13T04:37:07.570Z,21.07
2018-09-13T04:39:35.823Z,23.80
2018-09-13T04:42:04.043Z,23.13
2018-09-13T04:44:32.310Z,19.53
2018-09-13T04:47:00.547Z,23.93
2018-09-13T04:49:28.791Z,25.87
2018-09-13T04:51:57.019Z,23.37
2018-09-13T04:54:25.282Z,23.50
2018-09-13T04:56:53.494Z,25.93
2018-09-13T04:59:21.729Z,25.33
2018-09-13T05:01:49.950Z,23.73
2018-09-13T05:04:18.175Z,27.40
2018-09-13T05:06:46.472Z,21.77
2018-09-13T05:09:15.080Z,24.50
2018-09-13T05:11:43.376Z,27.60
2018-09-13T05:14:11.584Z,24.63
2018-09-13T05:16:39.822Z,23.90
2018-09-13T05:19:08.045Z,23.23
2018-09-13T05:21:36.277Z,23.37
2018-09-13T05:24:04.514Z,25.70
2018-09-13T05:26:32.751Z,25.03
2018-09-13T05:29:01.026Z,27.90
2018-09-13T05:31:29.276Z,25.30
2018-09-13T05:33:57.465Z,24.03
2018-09-13T05:36:25.701Z,23.77
2018-09-13T05:38:53.942Z,23.60
2018-09-13T05:41:22.178Z,24.27
2018-09-13T05:43:50.410Z,22.73
2018-09-13T05:46:18.650Z,23.00
2018-09-13T05:48:46.881Z,23.03
2018-09-13T05:51:15.164Z,22.97
2018-09-13T05:53:43.338Z,24.47
2018-09-13T05:56:11.564Z,22.90
2018-09-13T05:58:39.801Z,21.43
2018-09-13T06:01:08.150Z,22.03
2018-09-13T06:03:36.393Z,22.13
2018-09-13T06:06:04.622Z,22.73
2018-09-13T06:08:32.890Z,24.93
2018-09-13T06:11:01.076Z,23.40
2018-09-13T06:13:29.313Z,25.10
2018-09-13T06:15:57.538Z,23.77
2018-09-13T06:18:25.786Z,24.17
2018-09-13T06:20:54.007Z,23.57
2018-09-13T06:23:22.230Z,23.97
2018-09-13T06:25:50.479Z,23.40
2018-09-13T06:28:18.698Z,25.60
2018-09-13T06:30:46.925Z,25.63
2018-09-13T06:33:15.182Z,23.33
2018-09-13T06:35:43.431Z,25.73
2018-09-13T06:38:11.699Z,25.87
2018-09-13T06:40:39.894Z,27.43
2018-09-13T06:43:08.146Z,26.10
2018-09-13T06:45:36.387Z,24.07
2018-09-13T06:48:04.956Z,26.00
2018-09-13T06:50:33.187Z,24.87
2018-09-13T06:53:01.427Z,24.77
2018-09-13T06:55:29.665Z,25.87
2018-09-13T06:57:57.943Z,26.90
2018-09-13T07:00:26.258Z,30.23
2018-09-13T07:02:54.491Z,25.23
2018-09-13T07:05:22.922Z,25.23
2018-09-13T07:07:51.150Z,25.23
2018-09-13T07:10:19.382Z,25.57
2018-09-13T07:12:47.605Z,29.40
2018-09-13T07:15:15.854Z,23.03
2018-09-13T07:17:44.092Z,25.00
2018-09-13T07:20:12.323Z,26.77
2018-09-13T07:22:40.555Z,28.37
2018-09-13T07:25:08.844Z,23.10
2018-09-13T07:27:37.082Z,27.80
2018-09-13T07:30:05.407Z,28.17
2018-09-13T07:32:33.650Z,26.00
2018-09-13T07:35:01.902Z,24.97
2018-09-13T07:37:30.146Z,27.00
2018-09-13T07:39:58.390Z,28.37
2018-09-13T07:42:26.657Z,27.17
2018-09-13T07:44:54.878Z,27.73
2018-09-13T07:47:23.097Z,29.27
2018-09-13T07:49:51.349Z,27.10
2018-09-13T07:52:19.590Z,28.17
2018-09-13T07:54:47.856Z,32.20
2018-09-13T07:57:16.050Z,33.00
2018-09-13T07:59:44.278Z,33.30
2018-09-13T08:02:12.503Z,33.70
2018-09-13T08:04:40.747Z,32.27
2018-09-13T08:07:08.969Z,34.37
2018-09-13T08:09:37.231Z,33.57
2018-09-13T08:12:05.677Z,33.00
2018-09-13T08:14:33.702Z,33.67
2018-09-13T08:17:01.929Z,32.97
2018-09-13T08:19:30.162Z,30.83
2018-09-13T08:21:58.406Z,32.17
2018-09-13T08:24:26.609Z,30.53
2018-09-13T08:26:54.899Z,31.47
2018-09-13T08:29:23.091Z,31.00
2018-09-13T08:31:51.317Z,31.17
2018-09-13T08:34:19.546Z,31.07
2018-09-13T08:36:47.825Z,35.00
2018-09-13T08:39:16.005Z,36.50
2018-09-13T08:41:44.246Z,34.13
2018-09-13T08:44:12.477Z,29.30
2018-09-13T08:46:40.725Z,32.60
2018-09-13T08:49:08.951Z,29.63
2018-09-13T08:51:37.210Z,33.13
2018-09-13T08:54:05.465Z,29.77
2018-09-13T08:56:33.696Z,32.60
2018-09-13T08:59:01.930Z,31.60
2018-09-13T09:01:30.165Z,33.57
2018-09-13T09:03:58.434Z,29.10
2018-09-13T09:06:26.706Z,27.10
2018-09-13T09:08:54.903Z,32.00
2018-09-13T09:11:23.130Z,31.43
2018-09-13T09:13:51.382Z,32.70
2018-09-13T09:16:19.627Z,33.00
2018-09-13T09:18:47.890Z,34.03
2018-09-13T09:21:16.114Z,30.73
2018-09-13T09:23:44.338Z,31.60
2018-09-13T09:26:12.557Z,29.50
2018-09-13T09:28:40.821Z,30.17
2018-09-13T09:31:09.055Z,31.83
2018-09-13T09:33:37.277Z,33.17
2018-09-13T09:36:05.535Z,32.00
2018-09-13T09:38:33.786Z,33.40
2018-09-13T09:41:02.066Z,33.80
2018-09-13T09:43:30.286Z,35.47
2018-09-13T09:45:58.582Z,29.07
2018-09-13T09:48:26.905Z,29.07
2018-09-13T09:50:55.151Z,28.37
2018-09-13T09:53:23.425Z,28.30
2018-09-13T09:55:51.650Z,29.50
2018-09-13T09:58:19.887Z,28.47
2018-09-13T10:00:53.490Z,26.43
2018-09-13T10:03:21.731Z,25.63
2018-09-13T10:05:49.961Z,28.80
2018-09-13T10:08:18.186Z,29.10
2018-09-13T10:10:46.406Z,30.17
2018-09-13T10:13:14.642Z,28.93
2018-09-13T10:15:48.266Z,31.27
2018-09-13T10:18:21.705Z,34.87
2018-09-13T10:20:55.197Z,31.57
2018-09-13T10:23:28.618Z,29.83
2018-09-13T10:26:02.177Z,30.17
2018-09-13T10:28:35.726Z,32.70
2018-09-13T10:31:09.159Z,32.13
2018-09-13T10:33:42.784Z,27.70
2018-09-13T10:36:16.253Z,25.77
2018-09-13T10:38:49.758Z,26.10
2018-09-13T10:41:23.256Z,26.90
2018-09-13T10:43:56.719Z,24.03
2018-09-13T10:46:26.589Z,24.87
2018-09-13T10:48:59.914Z,21.17
2018-09-13T10:52:37.325Z,23.47
2018-09-13T10:55:05.643Z,25.83
2018-09-13T10:57:39.227Z,23.43
2018-09-13T11:00:07.495Z,24.77
2018-09-13T11:02:35.759Z,22.87
2018-09-13T11:05:04.060Z,23.53
2018-09-13T11:07:32.288Z,23.87
2018-09-13T11:10:00.535Z,24.00
2018-09-13T11:13:34.512Z,27.53
2018-09-13T11:16:02.785Z,26.13
2018-09-13T11:18:31.030Z,22.27
2018-09-13T11:20:59.310Z,22.03
2018-09-13T11:23:27.579Z,24.07
2018-09-13T11:25:55.835Z,23.03
2018-09-13T11:28:24.053Z,23.40
2018-09-13T11:31:08.839Z,24.37
2018-09-13T11:33:37.062Z,23.20
2018-09-13T11:36:05.302Z,23.17
2018-09-13T11:38:33.546Z,28.03
2018-09-13T11:41:01.996Z,24.53
2018-09-13T11:43:30.070Z,23.03
2018-09-13T11:45:58.326Z,20.17
2018-09-13T11:48:26.575Z,18.80
2018-09-13T11:50:54.810Z,20.57
2018-09-13T11:53:23.123Z,17.97
2018-09-13T11:55:51.345Z,19.27
2018-09-13T11:58:19.558Z,18.07
2018-09-13T12:00:47.826Z,17.50
2018-09-13T12:03:16.045Z,17.37
2018-09-13T12:05:44.274Z,19.20
2018-09-13T12:08:12.505Z,16.93
2018-09-13T12:10:40.730Z,13.70
2018-09-13T12:13:08.975Z,11.30
2018-09-13T12:15:37.204Z,16.50
2018-09-13T12:18:05.705Z,12.57
2018-09-13T12:20:33.918Z,15.70
2018-09-13T12:23:02.161Z,12.93
2018-09-13T12:25:30.370Z,16.77
2018-09-13T12:27:58.589Z,17.27
2018-09-13T12:30:26.818Z,16.00
2018-09-13T12:32:55.058Z,16.07
2018-09-13T12:35:23.289Z,15.30
2018-09-13T12:37:51.511Z,13.93
2018-09-13T12:40:19.755Z,15.00
2018-09-13T12:42:48.028Z,15.47
2018-09-13T12:45:16.308Z,14.97
2018-09-13T12:47:44.544Z,13.80
2018-09-13T12:50:12.812Z,14.13
2018-09-13T12:52:41.039Z,14.13
2018-09-13T12:55:09.330Z,16.63
2018-09-13T12:57:37.602Z,17.17
2018-09-13T13:00:06.063Z,16.90
2018-09-13T13:02:34.305Z,13.73
2018-09-13T13:05:02.541Z,17.73
2018-09-13T13:07:30.796Z,12.87
2018-09-13T13:09:59.018Z,13.23
2018-09-13T13:12:27.288Z,8.97
2018-09-13T13:14:55.546Z,9.93
2018-09-13T13:17:23.853Z,13.73
2018-09-13T13:19:52.103Z,12.83
2018-09-13T13:22:20.317Z,10.57
2018-09-13T13:24:48.595Z,9.20
2018-09-13T13:27:16.873Z,8.47
2018-09-13T13:29:45.027Z,7.37
2018-09-13T13:32:13.277Z,9.20
2018-09-13T13:34:41.482Z,7.53
2018-09-13T13:37:09.716Z,10.83
2018-09-13T13:39:37.948Z,12.27
2018-09-13T13:42:06.274Z,11.37
2018-09-13T13:44:34.517Z,9.77
2018-09-13T13:47:02.754Z,8.87
2018-09-13T13:49:31.035Z,9.13
2018-09-13T13:51:59.247Z,11.43
2018-09-13T13:54:27.477Z,11.97
2018-09-13T13:56:55.693Z,12.73
2018-09-13T13:59:23.916Z,15.10
2018-09-13T14:01:52.384Z,11.17
2018-09-13T14:04:20.622Z,12.73
2018-09-13T14:06:48.853Z,12.67
2018-09-13T14:09:17.087Z,10.97
2018-09-13T14:11:45.327Z,13.57
2018-09-13T14:14:13.566Z,12.00
2018-09-13T14:16:41.797Z,11.00
2018-09-13T14:19:10.050Z,11.33
2018-09-13T14:21:38.282Z,10.70
2018-09-13T14:24:06.542Z,10.10
2018-09-13T14:26:34.789Z,11.27
2018-09-13T14:29:03.062Z,10.77
2018-09-13T14:31:31.284Z,10.57
2018-09-13T14:33:59.519Z,11.47
2018-09-13T14:36:27.738Z,11.10
2018-09-13T14:38:55.962Z,10.27
2018-09-13T14:41:24.295Z,10.53
2018-09-13T14:43:52.516Z,10.87
2018-09-13T14:46:20.737Z,11.10
2018-09-13T14:48:48.958Z,11.43
2018-09-13T14:51:17.181Z,11.97
2018-09-13T14:53:45.399Z,10.03
2018-09-13T14:56:13.662Z,11.73
2018-09-13T14:58:41.849Z,10.77
2018-09-13T15:01:10.078Z,12.23
2018-09-13T15:03:38.402Z,9.13
2018-09-13T15:06:06.665Z,9.07
2018-09-13T15:08:34.887Z,11.20
2018-09-13T15:11:03.155Z,10.53
2018-09-13T15:13:31.385Z,12.73
2018-09-13T15:15:59.622Z,12.97
2018-09-13T15:18:27.890Z,14.07
2018-09-13T15:20:56.115Z,12.20
2018-09-13T15:23:24.411Z,11.47
2018-09-13T15:25:52.622Z,12.40
2018-09-13T15:28:20.863Z,10.70
2018-09-13T15:30:49.168Z,10.73
2018-09-13T15:33:17.391Z,10.47
2018-09-13T15:35:45.598Z,11.17
2018-09-13T15:38:13.846Z,11.10
2018-09-13T15:40:42.151Z,10.57
2018-09-13T15:43:10.447Z,11.97
2018-09-13T15:45:39.275Z,11.27
2018-09-13T15:48:07.600Z,11.27
2018-09-13T15:50:35.848Z,11.00
2018-09-13T15:53:04.139Z,13.10
2018-09-13T15:55:32.417Z,10.87
2018-09-13T15:58:00.644Z,11.67
2018-09-13T16:00:28.896Z,11.33
2018-09-13T16:02:57.166Z,11.73
2018-09-13T16:05:25.458Z,11.47
2018-09-13T16:07:53.673Z,12.07
2018-09-13T16:10:21.932Z,12.27
2018-09-13T16:12:50.232Z,13.10
2018-09-13T16:15:18.399Z,13.70
2018-09-13T16:17:46.621Z,14.57
2018-09-13T16:20:14.875Z,12.13
2018-09-13T16:22:43.181Z,12.20
2018-09-13T16:25:11.401Z,15.17
2018-09-13T16:27:39.626Z,16.60
2018-09-13T16:30:07.866Z,15.53
2018-09-13T16:32:36.100Z,14.13
2018-09-13T16:35:04.470Z,16.43
2018-09-13T16:37:37.891Z,12.57
2018-09-13T16:40:10.335Z,13.83
2018-09-13T16:42:51.264Z,14.47
2018-09-13T16:45:19.702Z,12.80
2018-09-13T16:47:53.185Z,12.47
2018-09-13T16:50:21.387Z,13.83
2018-09-13T16:52:49.604Z,10.77
2018-09-13T16:55:17.854Z,11.80
2018-09-13T16:57:46.126Z,13.40
2018-09-13T17:00:14.380Z,11.17
2018-09-13T17:02:42.610Z,12.33
2018-09-13T17:05:10.950Z,12.73
2018-09-13T17:07:39.347Z,12.17
2018-09-13T17:10:07.650Z,14.30
2018-09-13T17:12:37.996Z,11.87
2018-09-13T17:15:06.510Z,13.67
2018-09-13T17:17:34.844Z,13.00
2018-09-13T17:20:03.111Z,18.40
2018-09-13T17:22:31.354Z,12.10
2018-09-13T17:24:59.607Z,12.07
2018-09-13T17:27:27.943Z,13.13
2018-09-13T17:29:56.202Z,11.53
2018-09-13T17:32:24.445Z,13.17
2018-09-13T17:34:52.687Z,13.60
2018-09-13T17:37:20.931Z,13.63
2018-09-13T17:39:49.217Z,14.03
2018-09-13T17:42:17.473Z,14.60
2018-09-13T17:44:45.722Z,14.13
2018-09-13T17:47:13.955Z,13.67
2018-09-13T17:49:42.247Z,14.43
2018-09-13T17:52:10.434Z,15.60
2018-09-13T17:54:38.673Z,15.67
2018-09-13T17:57:06.975Z,16.17
2018-09-13T17:59:35.226Z,15.90
2018-09-13T18:02:03.480Z,15.07
2018-09-13T18:04:31.763Z,17.30
2018-09-13T18:07:00.047Z,16.57
2018-09-13T18:09:28.326Z,15.47
2018-09-13T18:11:56.529Z,16.17
2018-09-13T18:14:24.754Z,14.57
2018-09-13T18:16:53.011Z,14.77
2018-09-13T18:19:21.270Z,15.03
2018-09-13T18:21:49.486Z,14.90
2018-09-13T18:24:17.736Z,16.03
2018-09-13T18:26:45.986Z,15.47
2018-09-13T18:29:14.283Z,15.13
2018-09-13T18:31:42.603Z,14.10
2018-09-13T18:34:10.880Z,15.63
2018-09-13T18:36:39.118Z,16.57
2018-09-13T18:39:08.887Z,15.47
2018-09-13T18:41:37.155Z,14.90
2018-09-13T18:44:05.411Z,15.97
2018-09-13T18:46:33.695Z,15.80
2018-09-13T18:49:01.959Z,15.97
2018-09-13T18:51:30.216Z,16.80
2018-09-13T18:53:58.665Z,16.37
2018-09-13T18:56:26.757Z,15.40
2018-09-13T18:58:54.988Z,14.87
2018-09-13T19:01:23.244Z,17.87
2018-09-13T19:03:51.516Z,16.07
2018-09-13T19:06:19.742Z,16.00
2018-09-13T19:08:47.971Z,14.97
2018-09-13T19:11:16.263Z,16.50
2018-09-13T19:13:44.490Z,15.60
2018-09-13T19:16:12.796Z,16.10
2018-09-13T19:18:41.014Z,15.27
2018-09-13T19:21:09.269Z,16.77
2018-09-13T19:23:37.508Z,17.23
2018-09-13T19:26:05.812Z,17.00
2018-09-13T19:28:34.038Z,17.80
2018-09-13T19:31:02.290Z,16.80
2018-09-13T19:33:30.494Z,17.20
2018-09-13T19:35:58.811Z,15.03
2018-09-13T19:38:27.048Z,15.43
2018-09-13T19:40:55.294Z,17.87
2018-09-13T19:43:23.530Z,17.93
2018-09-13T19:45:51.892Z,16.87
2018-09-13T19:51:10.583Z,16.77
2018-09-13T19:53:38.802Z,17.43
2018-09-13T19:56:07.057Z,16.73
2018-09-13T19:58:35.269Z,17.47
2018-09-13T20:01:03.502Z,15.63
2018-09-13T20:03:32.817Z,17.10
2018-09-13T20:06:01.034Z,16.77
2018-09-13T20:08:29.279Z,16.20
2018-09-13T20:10:57.487Z,17.97
2018-09-13T20:13:25.723Z,16.13
2018-09-13T20:15:53.929Z,15.27
2018-09-13T20:18:23.067Z,18.03
2018-09-13T20:20:51.265Z,15.97
2018-09-13T20:23:19.555Z,16.67
2018-09-13T20:25:47.766Z,15.73
2018-09-13T20:28:15.990Z,16.00
2018-09-13T20:30:44.219Z,15.97
2018-09-13T20:33:12.479Z,17.00
2018-09-13T20:35:40.710Z,18.97
2018-09-13T20:38:08.942Z,17.40
2018-09-13T20:40:37.175Z,17.63
2018-09-13T20:43:05.918Z,19.77
2018-09-13T20:45:34.282Z,19.13
2018-09-13T20:48:02.464Z,16.20
2018-09-13T20:50:30.744Z,18.00
2018-09-13T20:52:58.957Z,18.07
2018-09-13T20:55:27.195Z,17.63
2018-09-13T20:57:55.412Z,18.83
2018-09-13T21:00:23.638Z,16.27
2018-09-13T21:02:51.922Z,18.50
2018-09-13T21:05:20.448Z,16.97
2018-09-13T21:07:48.606Z,17.73
2018-09-13T21:10:16.854Z,18.57
2018-09-13T21:12:45.083Z,16.83
2018-09-13T21:15:13.327Z,15.60
2018-09-13T21:17:41.558Z,16.17
2018-09-13T21:20:09.778Z,16.13
2018-09-13T21:22:38.010Z,17.03
2018-09-13T21:25:06.235Z,15.17
2018-09-13T21:27:34.453Z,15.33
2018-09-13T21:30:02.723Z,14.93
2018-09-13T21:32:30.984Z,14.27
2018-09-13T21:34:59.207Z,15.50
2018-09-13T21:37:27.425Z,15.90
2018-09-13T21:39:55.672Z,15.53
2018-09-13T21:42:23.921Z,15.80
2018-09-13T21:44:52.133Z,16.27
2018-09-13T21:47:20.366Z,16.67
2018-09-13T21:49:48.585Z,15.83
2018-09-13T21:52:16.825Z,19.10
2018-09-13T21:54:45.057Z,18.07
2018-09-13T21:57:13.269Z,16.40
2018-09-13T21:59:41.484Z,15.17
2018-09-13T22:02:09.705Z,15.00
2018-09-13T22:04:37.929Z,16.53
2018-09-13T22:07:06.291Z,16.23
2018-09-13T22:09:34.493Z,16.57
2018-09-13T22:12:03.481Z,18.37
2018-09-13T22:14:31.722Z,15.23
2018-09-13T22:16:59.973Z,19.43
2018-09-13T22:19:28.182Z,16.47
2018-09-13T22:21:56.417Z,16.87
2018-09-13T22:24:24.645Z,15.30
2018-09-13T22:26:52.858Z,15.83
2018-09-13T22:29:21.078Z,17.80
2018-09-13T22:31:49.306Z,16.90
2018-09-13T22:34:17.541Z,17.27
2018-09-13T22:36:45.797Z,16.80
2018-09-13T22:39:14.034Z,17.17
2018-09-13T22:41:42.281Z,16.40
2018-09-13T22:44:10.498Z,19.17
2018-09-13T22:46:38.720Z,16.50
2018-09-13T22:49:06.992Z,15.50
2018-09-13T22:51:35.238Z,16.10
2018-09-13T22:54:03.502Z,17.53
2018-09-13T22:56:31.732Z,17.10
2018-09-13T22:58:59.963Z,17.43
2018-09-13T23:01:28.193Z,15.67
2018-09-13T23:03:56.411Z,16.37
2018-09-13T23:06:24.620Z,14.97
2018-09-13T23:08:52.869Z,18.00
2018-09-13T23:11:21.085Z,18.47
2018-09-13T23:13:49.339Z,16.87
2018-09-13T23:16:17.591Z,17.77
2018-09-13T23:18:45.812Z,16.73
2018-09-13T23:21:14.029Z,16.73
2018-09-13T23:23:42.258Z,23.80
2018-09-13T23:26:10.526Z,17.57
2018-09-13T23:28:38.748Z,18.67
2018-09-13T23:31:06.966Z,17.27
2018-09-13T23:33:35.186Z,17.67
2018-09-13T23:36:03.414Z,16.60
2018-09-13T23:38:31.655Z,17.63
2018-09-13T23:40:59.886Z,18.87
2018-09-13T23:43:28.110Z,19.23
2018-09-13T23:45:56.330Z,18.07
2018-09-13T23:48:24.548Z,17.73
2018-09-13T23:50:52.784Z,18.27
2018-09-13T23:53:21.011Z,17.20
2018-09-13T23:55:49.236Z,18.63
2018-09-13T23:58:17.441Z,17.50
